sensor_id;sensor_type;location;lat;lon;timestamp;pressure;altitude;pressure_sealevel;temperature;humidity
61906;BME280;47863;55.766;37.672;2023-09-19T00:00:38;100430.94;;;11.08;78.93
61906;BME280;47863;55.766;37.672;2023-09-19T00:03:06;100428.44;;;10.97;78.71
61906;BME280;47863;55.766;37.672;2023-09-19T00:05:36;100402.00;;;10.84;78.82
61906;BME280;47863;55.766;37.672;2023-09-19T00:08:02;100431.25;;;10.96;78.92
61906;BME280;47863;55.766;37.672;2023-09-19T00:10:29;100437.03;;;11.01;78.60
61906;BME280;47863;55.766;37.672;2023-09-19T00:12:57;100434.59;;;11.07;78.35
61906;BME280;47863;55.766;37.672;2023-09-19T00:15:27;100434.31;;;11.10;78.86
61906;BME280;47863;55.766;37.672;2023-09-19T00:17:56;100445.72;;;11.13;78.55
61906;BME280;47863;55.766;37.672;2023-09-19T00:20:23;100440.38;;;11.13;78.25
61906;BME280;47863;55.766;37.672;2023-09-19T00:22:50;100440.94;;;11.16;78.47
61906;BME280;47863;55.766;37.672;2023-09-19T00:25:20;100433.13;;;11.23;78.30
61906;BME280;47863;55.766;37.672;2023-09-19T00:27:48;100400.16;;;11.13;78.34
61906;BME280;47863;55.766;37.672;2023-09-19T00:30:17;100432.91;;;11.34;78.04
61906;BME280;47863;55.766;37.672;2023-09-19T00:32:47;100436.16;;;11.38;78.02
61906;BME280;47863;55.766;37.672;2023-09-19T00:35:14;100432.47;;;11.39;77.98
61906;BME280;47863;55.766;37.672;2023-09-19T00:37:41;100427.16;;;11.29;77.79
61906;BME280;47863;55.766;37.672;2023-09-19T00:40:10;100442.22;;;11.40;78.17
61906;BME280;47863;55.766;37.672;2023-09-19T00:42:38;100441.19;;;11.41;77.79
61906;BME280;47863;55.766;37.672;2023-09-19T00:45:06;100439.53;;;11.40;77.71
61906;BME280;47863;55.766;37.672;2023-09-19T00:47:32;100441.88;;;11.43;77.94
61906;BME280;47863;55.766;37.672;2023-09-19T00:49:58;100436.66;;;11.41;77.57
61906;BME280;47863;55.766;37.672;2023-09-19T00:52:24;100441.47;;;11.47;77.82
61906;BME280;47863;55.766;37.672;2023-09-19T00:54:51;100436.94;;;11.48;77.78
61906;BME280;47863;55.766;37.672;2023-09-19T00:57:17;100429.34;;;11.43;77.47
61906;BME280;47863;55.766;37.672;2023-09-19T00:59:44;100422.75;;;11.38;77.49
61906;BME280;47863;55.766;37.672;2023-09-19T01:02:10;100427.41;;;11.36;77.48
61906;BME280;47863;55.766;37.672;2023-09-19T01:04:40;100431.31;;;11.41;77.50
61906;BME280;47863;55.766;37.672;2023-09-19T01:07:07;100408.84;;;11.24;77.43
61906;BME280;47863;55.766;37.672;2023-09-19T01:09:34;100439.53;;;11.40;77.37
61906;BME280;47863;55.766;37.672;2023-09-19T01:12:02;100435.28;;;11.37;77.55
61906;BME280;47863;55.766;37.672;2023-09-19T01:14:46;100438.13;;;11.36;77.48
61906;BME280;47863;55.766;37.672;2023-09-19T01:17:27;100433.91;;;11.33;77.79
61906;BME280;47863;55.766;37.672;2023-09-19T01:20:43;100432.22;;;11.32;77.52
61906;BME280;47863;55.766;37.672;2023-09-19T01:26:06;100420.94;;;11.28;77.80
61906;BME280;47863;55.766;37.672;2023-09-19T01:31:28;100416.75;;;11.26;77.13
61906;BME280;47863;55.766;37.672;2023-09-19T01:34:02;100436.75;;;11.31;77.13
61906;BME280;47863;55.766;37.672;2023-09-19T01:36:32;100428.72;;;11.31;77.28
61906;BME280;47863;55.766;37.672;2023-09-19T01:39:07;100405.59;;;11.21;77.21
61906;BME280;47863;55.766;37.672;2023-09-19T01:44:44;100418.91;;;11.40;77.05
61906;BME280;47863;55.766;37.672;2023-09-19T01:47:41;100337.91;;;10.91;76.56
61906;BME280;47863;55.766;37.672;2023-09-19T01:50:32;100415.53;;;11.38;76.59
61906;BME280;47863;55.766;37.672;2023-09-19T01:53:07;100414.78;;;11.46;76.92
61906;BME280;47863;55.766;37.672;2023-09-19T01:55:43;100418.84;;;11.50;76.80
61906;BME280;47863;55.766;37.672;2023-09-19T02:00:54;100396.69;;;11.48;76.51
61906;BME280;47863;55.766;37.672;2023-09-19T02:03:22;100412.03;;;11.56;76.27
61906;BME280;47863;55.766;37.672;2023-09-19T02:05:49;100408.47;;;11.55;76.66
61906;BME280;47863;55.766;37.672;2023-09-19T02:08:20;100401.16;;;11.57;76.81
61906;BME280;47863;55.766;37.672;2023-09-19T02:10:46;100379.06;;;11.45;76.66
61906;BME280;47863;55.766;37.672;2023-09-19T02:13:19;100402.41;;;11.53;76.67
61906;BME280;47863;55.766;37.672;2023-09-19T02:15:46;100394.84;;;11.48;76.59
61906;BME280;47863;55.766;37.672;2023-09-19T02:18:13;100367.59;;;11.25;76.63
61906;BME280;47863;55.766;37.672;2023-09-19T02:20:40;100388.47;;;11.31;76.71
61906;BME280;47863;55.766;37.672;2023-09-19T02:23:06;100377.41;;;11.17;76.85
61906;BME280;47863;55.766;37.672;2023-09-19T02:25:33;100398.84;;;11.17;76.96
61906;BME280;47863;55.766;37.672;2023-09-19T02:27:58;100379.44;;;11.05;76.95
61906;BME280;47863;55.766;37.672;2023-09-19T02:30:25;100389.47;;;11.03;77.19
61906;BME280;47863;55.766;37.672;2023-09-19T02:32:53;100390.09;;;10.97;77.22
61906;BME280;47863;55.766;37.672;2023-09-19T02:35:19;100386.44;;;10.88;77.16
61906;BME280;47863;55.766;37.672;2023-09-19T02:37:48;100387.03;;;10.82;77.37
61906;BME280;47863;55.766;37.672;2023-09-19T02:40:14;100385.09;;;10.74;77.43
61906;BME280;47863;55.766;37.672;2023-09-19T02:42:55;100362.91;;;10.54;77.38
61906;BME280;47863;55.766;37.672;2023-09-19T02:45:21;100383.03;;;10.58;77.61
61906;BME280;47863;55.766;37.672;2023-09-19T02:47:49;100376.59;;;10.51;77.57
61906;BME280;47863;55.766;37.672;2023-09-19T02:50:15;100377.19;;;10.45;77.63
61906;BME280;47863;55.766;37.672;2023-09-19T02:52:42;100382.97;;;10.40;77.75
61906;BME280;47863;55.766;37.672;2023-09-19T02:55:10;100387.94;;;10.35;77.85
61906;BME280;47863;55.766;37.672;2023-09-19T02:57:36;100385.81;;;10.29;77.65
61906;BME280;47863;55.766;37.672;2023-09-19T03:00:07;100389.44;;;10.28;77.77
61906;BME280;47863;55.766;37.672;2023-09-19T03:02:36;100385.38;;;10.24;77.68
61906;BME280;47863;55.766;37.672;2023-09-19T03:05:04;100390.88;;;10.22;77.78
61906;BME280;47863;55.766;37.672;2023-09-19T03:07:30;100390.03;;;10.22;77.69
61906;BME280;47863;55.766;37.672;2023-09-19T03:09:56;100383.72;;;10.13;77.71
61906;BME280;47863;55.766;37.672;2023-09-19T03:12:22;100390.72;;;10.24;77.59
61906;BME280;47863;55.766;37.672;2023-09-19T03:14:48;100364.13;;;10.12;77.72
61906;BME280;47863;55.766;37.672;2023-09-19T03:17:13;100388.34;;;10.30;77.54
61906;BME280;47863;55.766;37.672;2023-09-19T03:19:40;100383.53;;;10.34;77.83
61906;BME280;47863;55.766;37.672;2023-09-19T03:22:05;100396.78;;;10.45;77.52
61906;BME280;47863;55.766;37.672;2023-09-19T03:24:31;100388.16;;;10.51;77.30
61906;BME280;47863;55.766;37.672;2023-09-19T03:26:59;100356.19;;;10.40;77.02
61906;BME280;47863;55.766;37.672;2023-09-19T03:29:24;100382.63;;;10.63;76.96
61906;BME280;47863;55.766;37.672;2023-09-19T03:31:50;100371.22;;;10.61;77.00
61906;BME280;47863;55.766;37.672;2023-09-19T03:34:16;100381.72;;;10.72;76.65
61906;BME280;47863;55.766;37.672;2023-09-19T03:36:42;100351.06;;;10.57;76.88
61906;BME280;47863;55.766;37.672;2023-09-19T03:39:08;100369.00;;;10.74;76.77
61906;BME280;47863;55.766;37.672;2023-09-19T03:41:33;100391.06;;;10.96;76.57
61906;BME280;47863;55.766;37.672;2023-09-19T03:44:02;100395.13;;;11.00;76.80
61906;BME280;47863;55.766;37.672;2023-09-19T03:46:28;100362.97;;;11.00;76.67
61906;BME280;47863;55.766;37.672;2023-09-19T03:48:54;100386.16;;;11.19;76.56
61906;BME280;47863;55.766;37.672;2023-09-19T03:51:20;100386.84;;;11.21;76.64
61906;BME280;47863;55.766;37.672;2023-09-19T03:53:46;100360.41;;;11.08;76.58
61906;BME280;47863;55.766;37.672;2023-09-19T03:56:11;100385.25;;;11.28;76.69
61906;BME280;47863;55.766;37.672;2023-09-19T03:58:37;100393.38;;;11.36;76.69
61906;BME280;47863;55.766;37.672;2023-09-19T04:01:05;100387.53;;;11.41;76.49
61906;BME280;47863;55.766;37.672;2023-09-19T04:03:34;100387.25;;;11.44;76.64
61906;BME280;47863;55.766;37.672;2023-09-19T04:06:12;100365.72;;;11.36;76.16
61906;BME280;47863;55.766;37.672;2023-09-19T04:08:38;100389.94;;;11.44;76.53
61906;BME280;47863;55.766;37.672;2023-09-19T04:11:03;100388.09;;;11.44;76.48
61906;BME280;47863;55.766;37.672;2023-09-19T04:13:29;100382.88;;;11.43;76.71
61906;BME280;47863;55.766;37.672;2023-09-19T04:15:55;100376.53;;;11.44;76.72
61906;BME280;47863;55.766;37.672;2023-09-19T04:18:22;100367.72;;;11.51;76.45
61906;BME280;47863;55.766;37.672;2023-09-19T04:20:55;100370.63;;;11.58;76.86
61906;BME280;47863;55.766;37.672;2023-09-19T04:23:21;100375.22;;;11.66;76.30
61906;BME280;47863;55.766;37.672;2023-09-19T04:25:47;100368.06;;;11.75;76.32
61906;BME280;47863;55.766;37.672;2023-09-19T04:28:13;100363.25;;;11.78;76.09
61906;BME280;47863;55.766;37.672;2023-09-19T04:30:39;100351.00;;;11.76;76.14
61906;BME280;47863;55.766;37.672;2023-09-19T04:33:07;100350.16;;;11.75;76.03
61906;BME280;47863;55.766;37.672;2023-09-19T04:35:34;100338.34;;;11.68;76.02
61906;BME280;47863;55.766;37.672;2023-09-19T04:38:00;100355.72;;;11.82;76.08
61906;BME280;47863;55.766;37.672;2023-09-19T04:40:26;100351.88;;;11.84;76.00
61906;BME280;47863;55.766;37.672;2023-09-19T04:42:56;100354.56;;;11.84;75.90
61906;BME280;47863;55.766;37.672;2023-09-19T04:45:25;100337.25;;;11.79;76.06
61906;BME280;47863;55.766;37.672;2023-09-19T04:47:55;100349.88;;;11.86;76.05
61906;BME280;47863;55.766;37.672;2023-09-19T04:50:21;100338.66;;;11.83;75.90
61906;BME280;47863;55.766;37.672;2023-09-19T04:52:51;100353.00;;;11.92;76.13
61906;BME280;47863;55.766;37.672;2023-09-19T04:55:17;100352.38;;;11.98;76.00
61906;BME280;47863;55.766;37.672;2023-09-19T04:57:50;100355.78;;;12.08;75.98
61906;BME280;47863;55.766;37.672;2023-09-19T05:00:17;100336.47;;;12.04;76.13
61906;BME280;47863;55.766;37.672;2023-09-19T05:02:44;100369.53;;;12.31;75.87
61906;BME280;47863;55.766;37.672;2023-09-19T05:05:10;100354.31;;;12.40;75.40
61906;BME280;47863;55.766;37.672;2023-09-19T05:07:39;100341.06;;;12.38;75.34
61906;BME280;47863;55.766;37.672;2023-09-19T05:10:05;100359.31;;;12.61;75.47
61906;BME280;47863;55.766;37.672;2023-09-19T05:12:37;100350.59;;;12.67;75.22
61906;BME280;47863;55.766;37.672;2023-09-19T05:15:03;100341.19;;;12.71;75.03
61906;BME280;47863;55.766;37.672;2023-09-19T05:17:30;100343.88;;;12.71;75.20
61906;BME280;47863;55.766;37.672;2023-09-19T05:19:57;100344.94;;;12.78;75.19
61906;BME280;47863;55.766;37.672;2023-09-19T05:22:24;100343.75;;;12.81;74.89
61906;BME280;47863;55.766;37.672;2023-09-19T05:24:50;100331.88;;;12.92;75.00
61906;BME280;47863;55.766;37.672;2023-09-19T05:27:16;100311.00;;;12.85;74.86
61906;BME280;47863;55.766;37.672;2023-09-19T05:29:43;100338.34;;;13.15;74.78
61906;BME280;47863;55.766;37.672;2023-09-19T05:32:10;100335.03;;;13.29;74.54
61906;BME280;47863;55.766;37.672;2023-09-19T05:34:36;100341.25;;;13.38;74.41
61906;BME280;47863;55.766;37.672;2023-09-19T05:37:02;100326.97;;;13.46;74.16
61906;BME280;47863;55.766;37.672;2023-09-19T05:39:28;100325.97;;;13.55;74.04
61906;BME280;47863;55.766;37.672;2023-09-19T05:41:53;100337.59;;;13.72;73.95
61906;BME280;47863;55.766;37.672;2023-09-19T05:44:19;100335.59;;;13.82;73.90
61906;BME280;47863;55.766;37.672;2023-09-19T05:46:44;100338.09;;;13.92;73.80
61906;BME280;47863;55.766;37.672;2023-09-19T05:49:13;100339.75;;;14.09;73.61
61906;BME280;47863;55.766;37.672;2023-09-19T05:51:39;100321.38;;;14.21;73.35
61906;BME280;47863;55.766;37.672;2023-09-19T05:54:05;100326.53;;;14.39;73.06
61906;BME280;47863;55.766;37.672;2023-09-19T05:56:30;100334.25;;;14.59;72.98
61906;BME280;47863;55.766;37.672;2023-09-19T05:58:56;100313.56;;;14.43;72.94
61906;BME280;47863;55.766;37.672;2023-09-19T06:01:22;100272.72;;;14.15;73.07
61906;BME280;47863;55.766;37.672;2023-09-19T06:03:48;100335.09;;;14.51;73.23
61906;BME280;47863;55.766;37.672;2023-09-19T06:06:14;100324.97;;;14.53;73.27
61906;BME280;47863;55.766;37.672;2023-09-19T06:08:40;100333.75;;;14.63;73.11
61906;BME280;47863;55.766;37.672;2023-09-19T06:11:05;100331.97;;;14.87;72.92
61906;BME280;47863;55.766;37.672;2023-09-19T06:13:34;100331.84;;;15.12;72.78
61906;BME280;47863;55.766;37.672;2023-09-19T06:16:01;100333.47;;;15.44;72.52
61906;BME280;47863;55.766;37.672;2023-09-19T06:18:33;100329.84;;;15.83;71.58
61906;BME280;47863;55.766;37.672;2023-09-19T06:20:59;100306.88;;;16.17;71.37
61906;BME280;47863;55.766;37.672;2023-09-19T06:23:25;100326.47;;;16.63;71.05
61906;BME280;47863;55.766;37.672;2023-09-19T06:25:54;100330.66;;;16.81;70.88
61906;BME280;47863;55.766;37.672;2023-09-19T06:28:20;100308.75;;;16.91;70.70
61906;BME280;47863;55.766;37.672;2023-09-19T06:30:50;100315.69;;;17.15;70.67
61906;BME280;47863;55.766;37.672;2023-09-19T06:33:15;100311.53;;;17.34;70.36
61906;BME280;47863;55.766;37.672;2023-09-19T06:35:42;100319.13;;;17.67;69.74
61906;BME280;47863;55.766;37.672;2023-09-19T06:38:10;100313.97;;;17.93;69.22
61906;BME280;47863;55.766;37.672;2023-09-19T06:40:38;100311.09;;;18.01;69.06
61906;BME280;47863;55.766;37.672;2023-09-19T06:43:05;100311.59;;;18.12;68.92
61906;BME280;47863;55.766;37.672;2023-09-19T06:45:31;100311.59;;;18.12;69.01
61906;BME280;47863;55.766;37.672;2023-09-19T06:47:57;100301.13;;;18.09;68.72
61906;BME280;47863;55.766;37.672;2023-09-19T06:50:23;100305.81;;;18.21;68.46
61906;BME280;47863;55.766;37.672;2023-09-19T06:52:50;100309.25;;;18.37;67.72
61906;BME280;47863;55.766;37.672;2023-09-19T06:55:18;100309.81;;;18.67;67.56
61906;BME280;47863;55.766;37.672;2023-09-19T06:57:46;100292.50;;;19.10;66.16
61906;BME280;47863;55.766;37.672;2023-09-19T07:00:13;100318.03;;;19.42;64.78
61906;BME280;47863;55.766;37.672;2023-09-19T07:03:04;100314.53;;;19.88;63.64
61906;BME280;47863;55.766;37.672;2023-09-19T07:05:34;100325.16;;;20.30;63.28
61906;BME280;47863;55.766;37.672;2023-09-19T07:08:03;100308.75;;;20.76;63.45
61906;BME280;47863;55.766;37.672;2023-09-19T07:10:29;100307.41;;;21.37;61.62
61906;BME280;47863;55.766;37.672;2023-09-19T07:13:00;100303.63;;;21.95;60.37
61906;BME280;47863;55.766;37.672;2023-09-19T07:15:26;100304.72;;;22.38;60.49
61906;BME280;47863;55.766;37.672;2023-09-19T07:17:53;100294.50;;;22.33;60.76
61906;BME280;47863;55.766;37.672;2023-09-19T07:20:20;100304.84;;;22.25;60.52
61906;BME280;47863;55.766;37.672;2023-09-19T07:22:45;100294.97;;;22.24;60.74
61906;BME280;47863;55.766;37.672;2023-09-19T07:25:13;100305.31;;;22.40;60.44
61906;BME280;47863;55.766;37.672;2023-09-19T07:27:40;100307.91;;;22.72;59.89
61906;BME280;47863;55.766;37.672;2023-09-19T07:30:07;100320.53;;;22.85;59.94
61906;BME280;47863;55.766;37.672;2023-09-19T07:32:33;100311.53;;;22.66;59.66
61906;BME280;47863;55.766;37.672;2023-09-19T07:35:02;100304.94;;;22.36;60.07
61906;BME280;47863;55.766;37.672;2023-09-19T07:37:29;100306.81;;;21.92;60.48
61906;BME280;47863;55.766;37.672;2023-09-19T07:39:56;100302.84;;;21.63;61.51
61906;BME280;47863;55.766;37.672;2023-09-19T07:42:22;100309.28;;;21.37;61.99
61906;BME280;47863;55.766;37.672;2023-09-19T07:44:47;100300.22;;;21.11;61.45
61906;BME280;47863;55.766;37.672;2023-09-19T07:47:16;100285.06;;;20.84;61.79
61906;BME280;47863;55.766;37.672;2023-09-19T07:49:42;100281.59;;;20.56;62.21
61906;BME280;47863;55.766;37.672;2023-09-19T07:52:08;100291.03;;;20.54;61.67
61906;BME280;47863;55.766;37.672;2023-09-19T07:54:35;100260.53;;;20.25;61.97
61906;BME280;47863;55.766;37.672;2023-09-19T07:57:02;100284.22;;;20.05;62.22
61906;BME280;47863;55.766;37.672;2023-09-19T07:59:27;100275.88;;;19.73;62.80
61906;BME280;47863;55.766;37.672;2023-09-19T08:01:53;100273.34;;;19.51;62.81
61906;BME280;47863;55.766;37.672;2023-09-19T08:04:19;100265.59;;;19.41;62.57
61906;BME280;47863;55.766;37.672;2023-09-19T08:06:45;100278.13;;;19.56;61.70
61906;BME280;47863;55.766;37.672;2023-09-19T08:09:11;100271.50;;;19.85;61.49
61906;BME280;47863;55.766;37.672;2023-09-19T08:11:37;100278.13;;;20.23;60.57
61906;BME280;47863;55.766;37.672;2023-09-19T08:14:04;100281.16;;;20.53;59.84
61906;BME280;47863;55.766;37.672;2023-09-19T08:16:33;100266.06;;;20.70;59.67
61906;BME280;47863;55.766;37.672;2023-09-19T08:18:58;100263.97;;;20.72;59.81
61906;BME280;47863;55.766;37.672;2023-09-19T08:21:24;100218.66;;;20.33;60.14
61906;BME280;47863;55.766;37.672;2023-09-19T08:23:51;100271.53;;;20.57;60.20
61906;BME280;47863;55.766;37.672;2023-09-19T08:26:16;100263.41;;;20.44;60.81
61906;BME280;47863;55.766;37.672;2023-09-19T08:28:42;100261.59;;;20.17;60.81
61906;BME280;47863;55.766;37.672;2023-09-19T08:31:08;100266.84;;;19.92;61.07
61906;BME280;47863;55.766;37.672;2023-09-19T08:33:35;100263.28;;;19.58;61.62
61906;BME280;47863;55.766;37.672;2023-09-19T08:36:05;100263.50;;;19.24;62.11
61906;BME280;47863;55.766;37.672;2023-09-19T08:38:35;100257.34;;;18.95;62.58
61906;BME280;47863;55.766;37.672;2023-09-19T08:41:06;100239.72;;;18.71;62.90
61906;BME280;47863;55.766;37.672;2023-09-19T08:43:32;100249.69;;;18.63;62.83
61906;BME280;47863;55.766;37.672;2023-09-19T08:48:31;100222.03;;;18.33;63.05
61906;BME280;47863;55.766;37.672;2023-09-19T08:51:07;100244.59;;;18.40;63.17
61906;BME280;47863;55.766;37.672;2023-09-19T08:53:56;100234.34;;;18.36;63.01
61906;BME280;47863;55.766;37.672;2023-09-19T08:56:26;100238.31;;;18.40;62.96
61906;BME280;47863;55.766;37.672;2023-09-19T08:59:05;100186.31;;;18.23;62.87
61906;BME280;47863;55.766;37.672;2023-09-19T09:01:33;100216.25;;;18.50;62.53
61906;BME280;47863;55.766;37.672;2023-09-19T09:03:59;100225.91;;;18.66;62.51
61906;BME280;47863;55.766;37.672;2023-09-19T09:06:26;100227.41;;;18.68;62.53
61906;BME280;47863;55.766;37.672;2023-09-19T09:08:53;100220.72;;;18.71;62.32
61906;BME280;47863;55.766;37.672;2023-09-19T09:11:20;100233.31;;;18.85;62.40
61906;BME280;47863;55.766;37.672;2023-09-19T09:13:46;100228.13;;;18.90;62.46
61906;BME280;47863;55.766;37.672;2023-09-19T09:16:13;100224.78;;;18.95;62.15
61906;BME280;47863;55.766;37.672;2023-09-19T09:18:40;100231.66;;;18.97;62.17
61906;BME280;47863;55.766;37.672;2023-09-19T09:21:06;100236.50;;;19.02;62.05
61906;BME280;47863;55.766;37.672;2023-09-19T09:23:32;100246.13;;;19.18;61.98
61906;BME280;47863;55.766;37.672;2023-09-19T09:25:59;100242.38;;;19.32;61.55
61906;BME280;47863;55.766;37.672;2023-09-19T09:28:30;100233.84;;;19.55;61.49
61906;BME280;47863;55.766;37.672;2023-09-19T09:30:57;100234.88;;;19.88;61.23
61906;BME280;47863;55.766;37.672;2023-09-19T09:33:52;100220.81;;;20.24;60.41
61906;BME280;47863;55.766;37.672;2023-09-19T09:36:33;100214.88;;;20.40;59.72
61906;BME280;47863;55.766;37.672;2023-09-19T09:38:59;100228.00;;;20.64;59.93
61906;BME280;47863;55.766;37.672;2023-09-19T09:41:40;100222.06;;;20.73;59.80
61906;BME280;47863;55.766;37.672;2023-09-19T09:44:17;100220.00;;;20.75;59.74
61906;BME280;47863;55.766;37.672;2023-09-19T09:46:44;100214.72;;;20.80;59.89
61906;BME280;47863;55.766;37.672;2023-09-19T09:49:26;100214.56;;;20.69;59.93
61906;BME280;47863;55.766;37.672;2023-09-19T09:52:02;100220.66;;;20.64;60.28
61906;BME280;47863;55.766;37.672;2023-09-19T09:54:34;100211.84;;;20.69;59.93
61906;BME280;47863;55.766;37.672;2023-09-19T09:57:09;100198.63;;;20.72;59.13
61906;BME280;47863;55.766;37.672;2023-09-19T09:59:46;100210.47;;;20.91;59.31
61906;BME280;47863;55.766;37.672;2023-09-19T10:02:16;100208.03;;;21.08;58.92
61906;BME280;47863;55.766;37.672;2023-09-19T10:04:54;100208.97;;;21.27;58.63
61906;BME280;47863;55.766;37.672;2023-09-19T10:07:38;100190.66;;;21.34;58.64
61906;BME280;47863;55.766;37.672;2023-09-19T10:10:07;100196.31;;;21.65;58.35
61906;BME280;47863;55.766;37.672;2023-09-19T10:12:44;100199.88;;;21.84;58.03
61906;BME280;47863;55.766;37.672;2023-09-19T10:15:11;100197.28;;;22.14;57.96
61906;BME280;47863;55.766;37.672;2023-09-19T10:17:42;100197.13;;;22.46;56.75
61906;BME280;47863;55.766;37.672;2023-09-19T10:20:12;100183.81;;;22.68;56.90
61906;BME280;47863;55.766;37.672;2023-09-19T10:22:48;100183.16;;;22.84;56.84
61906;BME280;47863;55.766;37.672;2023-09-19T10:25:29;100169.53;;;22.96;56.11
61906;BME280;47863;55.766;37.672;2023-09-19T10:28:00;100156.66;;;23.03;55.54
61906;BME280;47863;55.766;37.672;2023-09-19T10:30:31;100178.03;;;23.18;55.62
61906;BME280;47863;55.766;37.672;2023-09-19T10:33:04;100174.94;;;23.03;55.67
61906;BME280;47863;55.766;37.672;2023-09-19T10:35:32;100172.03;;;22.97;56.00
61906;BME280;47863;55.766;37.672;2023-09-19T10:38:00;100162.19;;;23.98;54.27
61906;BME280;47863;55.766;37.672;2023-09-19T10:40:29;100170.38;;;25.58;52.06
61906;BME280;47863;55.766;37.672;2023-09-19T10:43:02;100180.28;;;27.19;50.03
61906;BME280;47863;55.766;37.672;2023-09-19T10:45:31;100163.81;;;28.52;47.08
61906;BME280;47863;55.766;37.672;2023-09-19T10:47:58;100155.06;;;29.57;46.08
61906;BME280;47863;55.766;37.672;2023-09-19T10:50:24;100171.56;;;30.63;45.44
61906;BME280;47863;55.766;37.672;2023-09-19T10:52:53;100164.97;;;31.33;43.81
61906;BME280;47863;55.766;37.672;2023-09-19T10:55:25;100172.31;;;31.77;42.89
61906;BME280;47863;55.766;37.672;2023-09-19T10:57:54;100156.25;;;31.79;41.76
61906;BME280;47863;55.766;37.672;2023-09-19T11:00:22;100142.63;;;31.59;42.27
61906;BME280;47863;55.766;37.672;2023-09-19T11:05:40;100155.75;;;30.09;44.14
61906;BME280;47863;55.766;37.672;2023-09-19T11:08:07;100162.75;;;30.56;43.13
61906;BME280;47863;55.766;37.672;2023-09-19T11:10:49;100155.69;;;30.79;42.74
61906;BME280;47863;55.766;37.672;2023-09-19T11:26:48;100101.16;;;31.78;40.18
61906;BME280;47863;55.766;37.672;2023-09-19T11:29:30;100152.94;;;32.69;38.99
61906;BME280;47863;55.766;37.672;2023-09-19T11:31:57;100147.50;;;33.15;39.53
61906;BME280;47863;55.766;37.672;2023-09-19T11:34:43;100133.56;;;33.67;38.94
61906;BME280;47863;55.766;37.672;2023-09-19T11:39:40;100111.41;;;34.04;37.18
61906;BME280;47863;55.766;37.672;2023-09-19T11:42:47;100137.31;;;34.54;36.44
61906;BME280;47863;55.766;37.672;2023-09-19T11:48:23;100127.81;;;35.14;36.46
61906;BME280;47863;55.766;37.672;2023-09-19T11:50:53;100129.91;;;35.31;35.70
61906;BME280;47863;55.766;37.672;2023-09-19T11:53:20;100128.03;;;35.49;34.89
61906;BME280;47863;55.766;37.672;2023-09-19T11:55:46;100120.00;;;35.48;34.99
61906;BME280;47863;55.766;37.672;2023-09-19T11:58:14;100112.94;;;35.50;34.49
61906;BME280;47863;55.766;37.672;2023-09-19T12:00:42;100120.88;;;35.66;35.45
61906;BME280;47863;55.766;37.672;2023-09-19T12:03:11;100101.91;;;35.37;35.08
61906;BME280;47863;55.766;37.672;2023-09-19T12:05:37;100093.34;;;35.24;34.59
61906;BME280;47863;55.766;37.672;2023-09-19T12:08:09;100105.25;;;34.93;33.14
61906;BME280;47863;55.766;37.672;2023-09-19T12:10:48;100097.41;;;34.73;34.36
61906;BME280;47863;55.766;37.672;2023-09-19T12:13:18;100101.25;;;34.49;33.02
61906;BME280;47863;55.766;37.672;2023-09-19T12:15:45;100096.50;;;34.13;34.28
61906;BME280;47863;55.766;37.672;2023-09-19T12:18:31;100081.09;;;33.93;34.16
61906;BME280;47863;55.766;37.672;2023-09-19T12:20:57;100086.34;;;33.81;34.18
61906;BME280;47863;55.766;37.672;2023-09-19T12:23:24;100073.25;;;33.54;34.07
61906;BME280;47863;55.766;37.672;2023-09-19T12:25:51;100075.38;;;32.96;34.86
61906;BME280;47863;55.766;37.672;2023-09-19T12:28:20;100069.28;;;32.62;34.76
61906;BME280;47863;55.766;37.672;2023-09-19T12:30:48;100073.31;;;32.50;35.11
61906;BME280;47863;55.766;37.672;2023-09-19T12:33:18;100072.19;;;32.51;34.51
61906;BME280;47863;55.766;37.672;2023-09-19T12:35:45;100056.72;;;32.31;34.77
61906;BME280;47863;55.766;37.672;2023-09-19T12:38:13;100070.28;;;32.33;34.59
61906;BME280;47863;55.766;37.672;2023-09-19T12:40:50;100062.47;;;32.35;34.78
61906;BME280;47863;55.766;37.672;2023-09-19T12:43:18;100053.34;;;32.15;35.04
61906;BME280;47863;55.766;37.672;2023-09-19T12:45:44;100055.81;;;31.74;35.32
61906;BME280;47863;55.766;37.672;2023-09-19T12:48:19;100055.47;;;31.27;35.53
61906;BME280;47863;55.766;37.672;2023-09-19T12:51:08;100047.31;;;31.12;35.10
61906;BME280;47863;55.766;37.672;2023-09-19T12:53:41;100051.66;;;31.18;35.55
61906;BME280;47863;55.766;37.672;2023-09-19T12:56:09;100041.13;;;31.20;35.59
61906;BME280;47863;55.766;37.672;2023-09-19T12:58:52;100034.75;;;31.25;35.12
61906;BME280;47863;55.766;37.672;2023-09-19T13:01:19;100041.25;;;31.10;35.34
61906;BME280;47863;55.766;37.672;2023-09-19T13:03:45;100045.28;;;30.93;35.45
61906;BME280;47863;55.766;37.672;2023-09-19T13:06:11;100043.41;;;30.89;35.39
61906;BME280;47863;55.766;37.672;2023-09-19T13:08:39;100032.91;;;30.80;35.21
61906;BME280;47863;55.766;37.672;2023-09-19T13:11:12;100031.59;;;30.73;35.49
61906;BME280;47863;55.766;37.672;2023-09-19T13:13:44;100007.06;;;30.32;35.93
61906;BME280;47863;55.766;37.672;2023-09-19T13:16:11;100009.28;;;30.24;36.20
61906;BME280;47863;55.766;37.672;2023-09-19T13:18:48;100014.81;;;30.19;35.94
61906;BME280;47863;55.766;37.672;2023-09-19T13:21:17;100003.97;;;29.89;36.54
61906;BME280;47863;55.766;37.672;2023-09-19T13:23:54;100028.66;;;29.54;37.05
61906;BME280;47863;55.766;37.672;2023-09-19T13:26:25;100020.78;;;29.01;38.00